Sweet Briar, VA (24595)

2:47 AM EDT en Julio 07, 2015 (GMT -0400)
Lakeview | | Change Station
CLOSE
Current Station
Estación meteorológica personal
Location: Madison Heights, VA
Altura: 712 ft
Estaciones meteorológicas cercanas

Alt 712 ft 37.43 °N, 79.11 °W | Updated 12 seconds ago

Parcialmente nublado
Parcialmente nublado
67.4 ° F
Sensación térmica 67.4 ° F
N
0.0
Viento Variable Viento desde OSO
Gusts 0.0 mph

Hoy
Alta -- | Baja -- ° F
--% Posibilidad de precipitaciones
Ayer
Alta -- | Baja -- ° F
Precip. -- pul
6:01 AM 8:40 PM
Gibosa menguante, 68% visible
Presión 30.10 pul
Visibilidad 10.0 Millas
Nubes Nubes dispersas 100 ft
Punto de rocío 66 ° F
Humedad 96%
Precipitaciones 0.00 pul
Espesor de la nieve No disponible.
UV 0 de una escala de 12
Polen .50 de una escala de 12
Calidad del aire No disponible.
Flu Activity No disponible.
SPECI KLYH 070615Z AUTO 00000KT 10SM R04/3000VP6000FT SCT001 19/19 A3010 RMK AO2 T01890189

More Conditions Fewer Conditions

Presión 30.10 pul
Visibilidad 10.0 Millas
Nubes Nubes dispersas 100 ft
Punto de rocío 66 ° F
Humedad 96%
Precipitaciones 0.00 pul
Espesor de la nieve No disponible.
UV 0 de una escala de 12
Polen .50 de una escala de 12
Calidad del aire No disponible.
Flu Activity No disponible.
SPECI KLYH 070615Z AUTO 00000KT 10SM R04/3000VP6000FT SCT001 19/19 A3010 RMK AO2 T01890189

More Conditions Fewer Conditions

10-Day Weather Forecast

×

Almanac

Astronomía

Jul. 07, 2015 Salida Puesta
Hora real
Crepúsculo civil
Crepúsculo náutico
Crepúsculo astronómico
Luna
Horas de luz
Horas de luz
Tomorrow will be .
, % of the Moon is Illuminated

Extremos de hoy

Máximos del estado Bajos del estado

Community

WunderPhotos

Upload Photos

1,835,743 ¡fotos cargadas!

WunderBlogs® & News

Nearby

Calidad del aire

  Calidad del aire Índice AQ Contaminante
Not available.

Grosos de nieve

Estación Profundido Altura

Actividad de terremotos

Ciudad Distance Mag. Tiempo y dato
Magnitud mínima muestra es 2,5.

Temperaturas de aguas costeras

Lugar Temperatura

Stations

Estaciones meteorológicas cercanas

Ubicación de la estación Temp. Vientos helados Punto de rocío Humedad Viento Precip. Alt Actualizado Tipo